Time;durP1;ratioP1;P1;durP2;ratioP2;P2;SDS_P1;SDS_P2;PMS_P1;PMS_P2;Temp;Humidity;BMP_temperature;BMP_pressure;BME280_temperature;BME280_humidity;BME280_pressure;Samples;Min_cycle;Max_cycle;Signal;HPM_P1;HPM_P2
2021/05/27 00:00:06;;;;;;;1.35;0.90;;;23.70;35.60;;;;;;5009476;28;20220;-38
2021/05/27 00:02:32;;;;;;;1.35;0.90;;;23.70;35.60;;;;;;5012638;28;20202;-39
2021/05/27 00:04:58;;;;;;;1.85;0.98;;;23.70;35.70;;;;;;4998721;28;20340;-41
2021/05/27 00:07:24;;;;;;;0.90;0.90;;;23.70;35.60;;;;;;5012956;28;20203;-45
2021/05/27 00:09:50;;;;;;;1.10;0.90;;;23.70;35.60;;;;;;5011227;28;20218;-39
2021/05/27 00:12:16;;;;;;;1.80;0.95;;;23.70;35.70;;;;;;5011270;28;20257;-38
2021/05/27 00:14:42;;;;;;;0.95;0.88;;;23.70;35.70;;;;;;5013024;28;20680;-41
2021/05/27 00:17:08;;;;;;;1.27;1.00;;;23.70;35.70;;;;;;5010430;28;20207;-42
2021/05/27 00:19:34;;;;;;;1.25;0.90;;;23.70;35.60;;;;;;5011146;28;20223;-45
2021/05/27 00:22:00;;;;;;;1.20;0.90;;;23.70;35.60;;;;;;5012204;28;20203;-45
2021/05/27 00:24:26;;;;;;;2.40;1.02;;;23.70;35.70;;;;;;5011543;28;20203;-42
2021/05/27 00:26:52;;;;;;;1.15;1.00;;;23.70;36.00;;;;;;4997514;28;20578;-42
2021/05/27 00:29:18;;;;;;;1.05;0.90;;;23.70;35.90;;;;;;5008905;28;20239;-38
2021/05/27 00:31:44;;;;;;;1.33;1.02;;;23.70;36.00;;;;;;4997649;28;20218;-40
2021/05/27 00:34:10;;;;;;;2.05;1.15;;;23.70;36.00;;;;;;5003422;28;20231;-38
2021/05/27 00:36:36;;;;;;;1.02;0.93;;;23.70;36.00;;;;;;5006390;28;20294;-37
2021/05/27 00:39:02;;;;;;;2.80;0.93;;;23.70;36.30;;;;;;5024979;23;20696;-40
2021/05/27 00:41:28;;;;;;;1.38;1.05;;;23.70;36.50;;;;;;5031417;28;20222;-42
2021/05/27 00:43:54;;;;;;;1.63;0.90;;;23.70;36.50;;;;;;5031720;28;20617;-42
2021/05/27 00:46:20;;;;;;;1.80;0.93;;;23.70;36.50;;;;;;5032854;28;20202;-44
2021/05/27 00:48:59;;;;;;;1.30;1.17;;;23.70;36.60;;;;;;5023090;28;20230;-43
2021/05/27 00:51:25;;;;;;;0.85;0.82;;;23.70;36.60;;;;;;5010827;28;20265;-45
2021/05/27 00:53:51;;;;;;;1.27;1.17;;;23.70;36.40;;;;;;5010533;28;20261;-48
2021/05/27 00:56:17;;;;;;;2.78;1.20;;;23.70;36.60;;;;;;5010620;28;20210;-49
2021/05/27 00:58:43;;;;;;;2.22;1.00;;;23.70;36.60;;;;;;5012295;28;20647;-43
2021/05/27 01:01:09;;;;;;;2.97;1.05;;;23.70;36.40;;;;;;5011732;28;20306;-49
2021/05/27 01:03:35;;;;;;;1.00;1.00;;;23.70;36.10;;;;;;5011766;28;20207;-50
2021/05/27 01:06:01;;;;;;;1.20;1.10;;;23.70;36.10;;;;;;5011832;28;20222;-44
2021/05/27 01:08:27;;;;;;;1.05;0.95;;;23.70;36.00;;;;;;5011881;28;20253;-49
2021/05/27 01:10:53;;;;;;;1.52;1.30;;;23.70;35.90;;;;;;5012272;28;20215;-49
2021/05/27 01:13:19;;;;;;;1.35;1.25;;;23.70;35.90;;;;;;5010424;28;20287;-44
2021/05/27 01:15:45;;;;;;;1.85;1.00;;;23.70;36.00;;;;;;5010911;28;20617;-45
2021/05/27 01:18:11;;;;;;;1.33;0.82;;;23.60;35.80;;;;;;5011698;28;20219;-46
2021/05/27 01:20:37;;;;;;;1.30;1.20;;;23.70;36.00;;;;;;5011440;28;20199;-54
2021/05/27 01:23:03;;;;;;;1.42;1.00;;;23.70;36.00;;;;;;5011038;28;20199;-46
2021/05/27 01:25:29;;;;;;;1.00;0.90;;;23.70;36.00;;;;;;5011274;28;20211;-42
2021/05/27 01:27:55;;;;;;;1.60;1.10;;;23.70;36.00;;;;;;5011088;28;20283;-43
2021/05/27 01:30:21;;;;;;;1.63;0.90;;;23.70;36.00;;;;;;5011851;28;20393;-49
2021/05/27 01:32:47;;;;;;;1.42;0.90;;;23.70;36.00;;;;;;4996595;28;20220;-50
2021/05/27 01:35:13;;;;;;;1.10;1.00;;;23.70;36.10;;;;;;5006395;28;20822;-47
2021/05/27 01:37:39;;;;;;;0.90;0.90;;;23.70;36.00;;;;;;5012139;28;20350;-43
2021/05/27 01:40:05;;;;;;;1.10;1.02;;;23.70;36.00;;;;;;5010979;28;20274;-50
2021/05/27 01:42:31;;;;;;;1.20;1.00;;;23.70;36.00;;;;;;5011594;28;20206;-44
2021/05/27 01:44:57;;;;;;;2.00;1.00;;;23.70;36.00;;;;;;5010415;28;20208;-47
2021/05/27 01:47:23;;;;;;;1.48;0.90;;;23.60;36.20;;;;;;5011516;28;20577;-45
2021/05/27 01:49:49;;;;;;;1.75;0.98;;;23.70;36.20;;;;;;5010652;28;20230;-43
2021/05/27 01:52:15;;;;;;;1.40;1.00;;;23.70;36.20;;;;;;5011069;28;20210;-48
2021/05/27 01:54:41;;;;;;;0.80;0.80;;;23.70;36.30;;;;;;5008603;28;20282;-42
2021/05/27 01:57:07;;;;;;;1.77;1.10;;;23.70;36.30;;;;;;5011366;28;20207;-45
2021/05/27 01:59:33;;;;;;;1.00;0.90;;;23.60;36.20;;;;;;5003812;28;20594;-43
2021/05/27 02:01:59;;;;;;;1.00;0.80;;;23.70;36.30;;;;;;5011702;28;20203;-43
2021/05/27 02:04:25;;;;;;;1.13;1.00;;;23.60;36.30;;;;;;5007368;28;20203;-45
2021/05/27 02:06:51;;;;;;;1.13;0.80;;;23.60;36.30;;;;;;5008184;28;20266;-52
2021/05/27 02:09:17;;;;;;;1.63;0.93;;;23.70;36.30;;;;;;5010461;28;20258;-42
2021/05/27 02:11:43;;;;;;;1.05;1.00;;;23.60;36.30;;;;;;5009670;28;20350;-42
2021/05/27 02:14:09;;;;;;;1.67;0.93;;;23.70;36.30;;;;;;5010775;28;20238;-46
2021/05/27 02:16:35;;;;;;;2.17;1.65;;;23.60;36.30;;;;;;5009726;28;20333;-45
2021/05/27 02:19:01;;;;;;;1.33;1.00;;;23.60;36.30;;;;;;5011279;28;20231;-44
2021/05/27 02:21:27;;;;;;;1.17;0.85;;;23.60;36.20;;;;;;5009202;28;20199;-48
2021/05/27 02:23:53;;;;;;;0.80;0.80;;;23.60;36.30;;;;;;5010726;28;20208;-45
2021/05/27 02:26:19;;;;;;;1.58;0.90;;;23.60;36.30;;;;;;5009753;28;20199;-50
2021/05/27 02:28:45;;;;;;;0.85;0.80;;;23.60;36.30;;;;;;5009905;28;20659;-44
2021/05/27 02:31:11;;;;;;;1.05;1.00;;;23.60;37.00;;;;;;5010856;28;20216;-47
2021/05/27 02:33:37;;;;;;;0.85;0.85;;;23.60;36.40;;;;;;5009915;28;20310;-44
2021/05/27 02:36:03;;;;;;;1.00;0.80;;;23.60;36.30;;;;;;5006595;28;20207;-44
2021/05/27 02:38:29;;;;;;;1.08;0.93;;;23.60;36.30;;;;;;5010549;28;20233;-43
2021/05/27 02:40:55;;;;;;;1.20;1.10;;;23.60;36.40;;;;;;5010839;28;20210;-43
2021/05/27 02:43:21;;;;;;;1.10;0.90;;;23.70;36.30;;;;;;5005485;28;20215;-49
2021/05/27 02:45:47;;;;;;;2.10;1.17;;;23.70;36.30;;;;;;5010491;28;20207;-43
2021/05/27 02:48:13;;;;;;;0.93;0.88;;;23.60;36.20;;;;;;5010742;28;20274;-44
2021/05/27 02:50:38;;;;;;;0.93;0.70;;;23.70;36.30;;;;;;5009725;28;20512;-46
2021/05/27 02:53:04;;;;;;;0.82;0.82;;;23.70;36.30;;;;;;5008543;28;20203;-44
2021/05/27 02:55:30;;;;;;;1.85;1.00;;;23.60;36.30;;;;;;5009247;28;20238;-45
2021/05/27 02:57:56;;;;;;;1.08;0.82;;;23.70;36.30;;;;;;5010604;28;20234;-45
2021/05/27 03:00:22;;;;;;;1.25;1.10;;;23.70;36.30;;;;;;5010284;28;20222;-44
2021/05/27 03:02:48;;;;;;;0.98;0.80;;;23.60;36.30;;;;;;5013320;28;20198;-45
2021/05/27 03:05:14;;;;;;;1.15;0.93;;;23.60;36.30;;;;;;5014204;28;20211;-46
2021/05/27 03:07:40;;;;;;;3.00;1.02;;;23.70;36.40;;;;;;5013450;28;20603;-43
2021/05/27 03:10:06;;;;;;;1.33;0.90;;;23.60;36.30;;;;;;5013567;28;20210;-43
2021/05/27 03:12:32;;;;;;;0.98;0.90;;;23.70;36.30;;;;;;5014326;28;20544;-47
2021/05/27 03:14:58;;;;;;;0.93;0.90;;;23.60;36.30;;;;;;5013460;28;20231;-46
2021/05/27 03:17:24;;;;;;;1.15;0.95;;;23.60;36.20;;;;;;5014417;28;20257;-43
2021/05/27 03:19:50;;;;;;;2.65;1.20;;;23.60;36.30;;;;;;5014214;28;20663;-46
2021/05/27 03:22:16;;;;;;;0.82;0.82;;;23.60;36.30;;;;;;5013610;28;20226;-43
2021/05/27 03:24:42;;;;;;;1.00;0.90;;;23.60;36.30;;;;;;5007755;28;20564;-51
2021/05/27 03:27:09;;;;;;;0.82;0.82;;;23.60;36.30;;;;;;5011581;28;20279;-47
2021/05/27 03:29:35;;;;;;;0.95;0.95;;;23.70;36.30;;;;;;5012837;28;20226;-43
2021/05/27 03:32:01;;;;;;;1.75;0.98;;;23.70;36.30;;;;;;5014421;28;20277;-43
2021/05/27 03:34:27;;;;;;;0.90;0.90;;;23.60;36.30;;;;;;5013202;28;20234;-42
2021/05/27 03:36:53;;;;;;;1.02;0.98;;;23.60;36.40;;;;;;5013833;28;20223;-47
2021/05/27 03:39:19;;;;;;;1.17;0.90;;;23.70;36.40;;;;;;5012737;28;20227;-45
2021/05/27 03:41:45;;;;;;;1.35;0.90;;;23.70;36.60;;;;;;5014196;28;20675;-48
2021/05/27 03:44:11;;;;;;;1.50;0.88;;;23.60;36.40;;;;;;5012576;28;20210;-42
2021/05/27 03:46:37;;;;;;;1.00;0.95;;;23.70;36.50;;;;;;5013391;28;20215;-43
2021/05/27 03:49:03;;;;;;;1.60;0.90;;;23.70;36.50;;;;;;5013394;28;20242;-44
2021/05/27 03:51:29;;;;;;;1.08;0.85;;;23.60;36.40;;;;;;5011791;28;20261;-46
2021/05/27 03:53:55;;;;;;;1.33;0.90;;;23.60;36.40;;;;;;5012113;28;20281;-43
2021/05/27 03:56:21;;;;;;;1.20;1.10;;;23.60;36.40;;;;;;5011958;28;21867;-46
2021/05/27 04:01:31;;;;;;;1.05;0.90;;;23.60;36.40;;;;;;5012411;28;20249;-53
2021/05/27 04:07:09;;;;;;;1.00;0.95;;;23.60;36.60;;;;;;4957456;28;20207;-46
2021/05/27 04:09:35;;;;;;;0.80;0.80;;;23.60;36.60;;;;;;5012769;28;20779;-46
2021/05/27 04:14:41;;;;;;;1.08;0.93;;;23.60;36.60;;;;;;5011201;28;20253;-46
2021/05/27 04:17:07;;;;;;;0.80;0.80;;;23.60;36.70;;;;;;5013488;28;20842;-50
2021/05/27 04:19:33;;;;;;;1.05;0.90;;;23.60;36.70;;;;;;5012164;28;20262;-47
2021/05/27 04:21:59;;;;;;;0.90;0.80;;;23.60;36.70;;;;;;5013233;28;20225;-46
2021/05/27 04:24:25;;;;;;;1.42;0.80;;;23.60;36.70;;;;;;5010184;28;20207;-46
2021/05/27 04:26:51;;;;;;;1.17;0.80;;;23.60;36.80;;;;;;4993786;28;20266;-50
2021/05/27 04:29:17;;;;;;;0.80;0.80;;;23.60;36.80;;;;;;4999200;28;20698;-45
2021/05/27 04:31:43;;;;;;;0.90;0.90;;;23.60;36.80;;;;;;5012335;28;20206;-47
2021/05/27 04:34:09;;;;;;;1.08;1.00;;;23.60;36.80;;;;;;5011567;28;20231;-45
2021/05/27 04:36:35;;;;;;;0.90;0.90;;;23.60;36.80;;;;;;5007050;28;20559;-45
2021/05/27 04:39:01;;;;;;;0.98;0.75;;;23.60;36.80;;;;;;5012123;28;20223;-43
2021/05/27 04:41:27;;;;;;;0.93;0.70;;;23.60;36.80;;;;;;5016078;28;20271;-45
2021/05/27 04:43:54;;;;;;;1.20;0.90;;;23.60;36.80;;;;;;5012292;28;20226;-43
2021/05/27 04:46:20;;;;;;;1.10;1.00;;;23.60;36.90;;;;;;5012364;28;20290;-43
2021/05/27 04:48:46;;;;;;;0.75;0.75;;;23.60;36.70;;;;;;5012269;28;20589;-48
2021/05/27 04:51:12;;;;;;;1.60;1.02;;;23.60;36.70;;;;;;5011281;28;20541;-42
2021/05/27 04:53:38;;;;;;;1.17;0.80;;;23.60;36.50;;;;;;5005879;28;20250;-49
2021/05/27 04:56:04;;;;;;;1.83;0.90;;;23.60;36.50;;;;;;5007045;28;20207;-44
2021/05/27 04:58:30;;;;;;;0.90;0.90;;;23.60;36.50;;;;;;5012470;28;20251;-45
2021/05/27 05:00:56;;;;;;;0.70;0.70;;;23.70;36.70;;;;;;5011611;28;20195;-48
2021/05/27 05:03:22;;;;;;;2.15;1.10;;;23.70;36.80;;;;;;5011633;28;20211;-46
2021/05/27 05:05:48;;;;;;;2.80;0.80;;;23.60;36.70;;;;;;5007195;28;20203;-43
2021/05/27 05:08:14;;;;;;;0.95;0.90;;;23.60;36.70;;;;;;5008556;28;20219;-42
2021/05/27 05:10:42;;;;;;;1.60;0.90;;;23.60;36.70;;;;;;5012134;28;20297;-45
2021/05/27 05:13:08;;;;;;;1.63;0.90;;;23.60;36.80;;;;;;5009868;28;20633;-42
2021/05/27 05:15:34;;;;;;;1.23;0.90;;;23.60;36.70;;;;;;5011625;28;20235;-44
2021/05/27 05:18:00;;;;;;;1.10;0.77;;;23.60;36.80;;;;;;5011625;28;20269;-55
2021/05/27 05:20:26;;;;;;;0.85;0.85;;;23.60;36.70;;;;;;5012278;28;20656;-52
2021/05/27 05:22:52;;;;;;;2.00;1.00;;;23.70;36.80;;;;;;5010367;28;20253;-52
2021/05/27 05:25:18;;;;;;;0.85;0.82;;;23.60;36.80;;;;;;5010574;28;20203;-48
2021/05/27 05:27:44;;;;;;;0.90;0.80;;;23.60;36.80;;;;;;5010112;28;20691;-49
2021/05/27 05:30:10;;;;;;;1.15;0.90;;;23.70;36.80;;;;;;5011536;28;20211;-48
2021/05/27 05:32:36;;;;;;;1.83;0.90;;;23.60;36.80;;;;;;5011038;28;20543;-48
2021/05/27 05:35:02;;;;;;;1.30;1.00;;;23.70;36.80;;;;;;5011090;28;20306;-43
2021/05/27 05:37:28;;;;;;;1.13;1.00;;;23.60;36.70;;;;;;5010061;28;20223;-50
2021/05/27 05:39:54;;;;;;;0.95;0.93;;;23.60;36.70;;;;;;5009612;28;20215;-48
2021/05/27 05:42:20;;;;;;;0.90;0.90;;;23.60;36.90;;;;;;5002379;28;20719;-39
2021/05/27 05:44:46;;;;;;;3.65;1.10;;;23.60;37.00;;;;;;5011019;28;20199;-42
2021/05/27 05:47:12;;;;;;;1.67;1.23;;;23.60;36.90;;;;;;5009934;28;20219;-42
2021/05/27 05:49:38;;;;;;;1.83;0.90;;;23.70;37.80;;;;;;5009248;28;20214;-42
2021/05/27 05:52:04;;;;;;;2.05;0.90;;;23.70;37.40;;;;;;5009435;28;20206;-44
2021/05/27 05:54:30;;;;;;;2.67;1.23;;;23.60;37.20;;;;;;5010463;28;20596;-44
2021/05/27 05:56:56;;;;;;;2.53;1.13;;;23.60;37.80;;;;;;5006576;28;20207;-40
2021/05/27 05:59:22;;;;;;;3.72;1.10;;;23.60;37.80;;;;;;5007205;28;20211;-48
2021/05/27 06:01:48;;;;;;;1.25;1.08;;;22.80;35.40;;;;;;5009753;28;20550;-47
2021/05/27 06:04:14;;;;;;;2.30;0.98;;;22.40;35.70;;;;;;5008886;28;20237;-50
2021/05/27 06:06:40;;;;;;;1.17;1.08;;;22.60;35.30;;;;;;5010234;28;20195;-44
2021/05/27 06:09:06;;;;;;;2.28;1.02;;;22.70;35.10;;;;;;5009557;28;20214;-45
2021/05/27 06:11:32;;;;;;;1.65;1.20;;;22.90;35.10;;;;;;5009710;28;20207;-43
2021/05/27 06:13:58;;;;;;;2.30;1.23;;;23.00;35.00;;;;;;5008396;28;20254;-49
2021/05/27 06:16:24;;;;;;;2.63;1.05;;;23.10;34.80;;;;;;5009475;28;20203;-44
2021/05/27 06:18:49;;;;;;;1.95;1.00;;;23.10;34.70;;;;;;5008849;28;20222;-46
2021/05/27 06:21:15;;;;;;;1.00;1.00;;;23.20;34.70;;;;;;5008634;28;20202;-41
2021/05/27 06:23:41;;;;;;;1.95;1.02;;;23.20;34.50;;;;;;5008508;28;20270;-41
2021/05/27 06:26:07;;;;;;;1.05;0.90;;;23.20;34.50;;;;;;5009683;28;20199;-41
2021/05/27 06:28:33;;;;;;;1.65;1.10;;;23.20;34.40;;;;;;5009313;28;20231;-47
2021/05/27 06:30:59;;;;;;;1.20;0.90;;;23.30;34.50;;;;;;5006550;28;20195;-46
2021/05/27 06:33:25;;;;;;;1.58;0.90;;;23.10;34.20;;;;;;5008286;28;20207;-40
2021/05/27 06:35:51;;;;;;;1.15;1.05;;;23.10;33.90;;;;;;5009896;28;20745;-43
2021/05/27 06:38:17;;;;;;;1.10;1.00;;;23.20;34.00;;;;;;5008775;28;20223;-45
2021/05/27 06:40:43;;;;;;;1.35;0.90;;;23.30;34.50;;;;;;5008778;28;20683;-41
2021/05/27 06:43:09;;;;;;;1.83;1.02;;;23.30;34.50;;;;;;5008862;28;20245;-46
2021/05/27 06:45:36;;;;;;;1.35;1.00;;;23.30;34.20;;;;;;5010810;28;20302;-46
2021/05/27 06:48:02;;;;;;;1.63;1.08;;;23.30;34.40;;;;;;5009357;28;20215;-43
2021/05/27 06:50:35;;;;;;;1.00;1.00;;;23.40;34.20;;;;;;5008914;28;20203;-43
2021/05/27 06:53:01;;;;;;;0.80;0.80;;;23.40;34.20;;;;;;5008063;28;20215;-42
2021/05/27 06:55:27;;;;;;;1.80;1.10;;;23.40;34.20;;;;;;5009670;28;20238;-46
2021/05/27 06:57:53;;;;;;;1.75;0.82;;;23.30;34.10;;;;;;5008811;28;20230;-44
2021/05/27 07:00:20;;;;;;;1.02;0.93;;;23.40;34.20;;;;;;5009752;28;20195;-43
2021/05/27 07:02:46;;;;;;;1.20;1.00;;;23.40;34.20;;;;;;5008035;28;20199;-52
2021/05/27 07:05:12;;;;;;;0.98;0.90;;;23.40;34.10;;;;;;5007558;28;20666;-45
2021/05/27 07:07:38;;;;;;;2.60;1.45;;;23.40;34.20;;;;;;4998162;28;20337;-44
2021/05/27 07:10:04;;;;;;;1.77;0.88;;;23.40;34.70;;;;;;5006365;28;20612;-46
2021/05/27 07:12:30;;;;;;;1.02;0.90;;;23.40;34.30;;;;;;5009012;28;20253;-45
2021/05/27 07:14:56;;;;;;;0.85;0.82;;;23.40;34.30;;;;;;5008151;28;20309;-47
2021/05/27 07:17:22;;;;;;;0.82;0.82;;;23.40;34.30;;;;;;5007435;28;20227;-49
2021/05/27 07:19:48;;;;;;;1.20;1.10;;;23.40;34.00;;;;;;5005483;28;20650;-40
2021/05/27 07:22:14;;;;;;;1.67;1.05;;;23.40;34.10;;;;;;5008557;28;20211;-46
2021/05/27 07:24:40;;;;;;;1.08;0.90;;;23.40;34.00;;;;;;5007368;28;20656;-43
2021/05/27 07:27:06;;;;;;;1.48;0.80;;;23.40;33.90;;;;;;5009123;28;20230;-41
2021/05/27 07:29:33;;;;;;;1.02;0.93;;;23.40;34.00;;;;;;5008161;28;20603;-42
2021/05/27 07:32:01;;;;;;;0.80;0.80;;;23.40;34.00;;;;;;5008527;28;20200;-46
2021/05/27 07:34:27;;;;;;;0.82;0.82;;;23.40;34.10;;;;;;5007355;28;20734;-51
2021/05/27 07:36:53;;;;;;;1.40;0.90;;;23.30;34.00;;;;;;5009736;28;20229;-42
2021/05/27 07:39:19;;;;;;;1.15;0.90;;;23.40;34.70;;;;;;5005025;28;20211;-45
2021/05/27 07:41:45;;;;;;;1.00;0.95;;;23.40;33.90;;;;;;5006414;28;20203;-47
2021/05/27 07:44:11;;;;;;;0.95;0.90;;;23.40;34.00;;;;;;5006090;28;20524;-45
2021/05/27 07:46:37;;;;;;;1.02;1.02;;;23.30;33.90;;;;;;5008333;28;20223;-42
2021/05/27 07:49:03;;;;;;;0.80;0.80;;;23.30;34.20;;;;;;5009375;28;20246;-49
2021/05/27 07:51:29;;;;;;;1.20;1.00;;;23.40;34.20;;;;;;5012997;28;20610;-49
2021/05/27 07:53:55;;;;;;;0.95;0.95;;;23.40;34.10;;;;;;5011243;28;20266;-47
2021/05/27 07:56:21;;;;;;;1.35;0.80;;;23.40;34.60;;;;;;5012765;28;20199;-40
2021/05/27 07:58:47;;;;;;;1.45;0.90;;;23.50;34.20;;;;;;5010709;28;20551;-41
2021/05/27 08:01:15;;;;;;;1.98;0.80;;;23.60;34.30;;;;;;5009295;28;20203;-46
2021/05/27 08:03:41;;;;;;;0.90;0.90;;;23.50;33.90;;;;;;5002521;28;20234;-44
2021/05/27 08:06:07;;;;;;;1.00;0.85;;;23.50;33.90;;;;;;5005874;28;20218;-46
2021/05/27 08:08:33;;;;;;;0.98;0.93;;;23.50;33.90;;;;;;5009629;28;20563;-40
2021/05/27 08:10:59;;;;;;;2.65;1.02;;;23.50;33.90;;;;;;5011357;28;20203;-43
2021/05/27 08:13:25;;;;;;;1.50;0.95;;;23.40;33.70;;;;;;5010604;28;20226;-44
2021/05/27 08:15:51;;;;;;;1.42;0.95;;;23.40;33.60;;;;;;5009113;28;20234;-42
2021/05/27 08:18:17;;;;;;;1.23;1.13;;;23.50;33.60;;;;;;5005328;28;20219;-44
2021/05/27 08:20:43;;;;;;;1.10;1.00;;;23.50;33.60;;;;;;5012601;28;20261;-49
2021/05/27 08:23:09;;;;;;;1.60;1.17;;;23.50;33.50;;;;;;5009429;28;20203;-46
2021/05/27 08:25:35;;;;;;;0.90;0.90;;;23.50;33.50;;;;;;5006803;28;20651;-44
2021/05/27 08:28:01;;;;;;;1.33;0.95;;;23.40;33.30;;;;;;5008561;28;20231;-49
2021/05/27 08:30:27;;;;;;;1.00;0.90;;;23.40;33.40;;;;;;5002258;28;20311;-43
2021/05/27 08:32:53;;;;;;;1.00;0.90;;;23.50;33.70;;;;;;5010148;28;20222;-45
2021/05/27 08:35:20;;;;;;;2.13;1.08;;;23.50;33.50;;;;;;5010830;28;20404;-44
2021/05/27 08:37:46;;;;;;;1.60;1.00;;;23.50;33.60;;;;;;5008818;28;20319;-43
2021/05/27 08:40:12;;;;;;;1.13;0.82;;;23.40;33.40;;;;;;5010777;28;20203;-48
2021/05/27 08:42:38;;;;;;;1.10;1.00;;;23.50;33.40;;;;;;5011543;28;20200;-48
2021/05/27 08:45:04;;;;;;;1.58;1.00;;;23.40;33.10;;;;;;5005863;28;20204;-52
2021/05/27 08:47:30;;;;;;;1.58;1.35;;;23.40;32.90;;;;;;5010883;28;20774;-46
2021/05/27 08:49:56;;;;;;;1.98;1.10;;;23.40;32.70;;;;;;5002401;28;20261;-42
2021/05/27 08:52:22;;;;;;;1.40;1.00;;;23.30;32.60;;;;;;5012612;28;20211;-42
2021/05/27 08:54:48;;;;;;;3.50;1.00;;;23.40;32.70;;;;;;5010855;28;20235;-46
2021/05/27 08:57:14;;;;;;;1.58;1.02;;;23.50;32.90;;;;;;5009108;28;20219;-52
2021/05/27 08:59:40;;;;;;;2.17;0.98;;;23.40;33.50;;;;;;5010986;28;20203;-45
2021/05/27 09:02:06;;;;;;;1.67;0.90;;;23.40;32.60;;;;;;5011617;28;20227;-43
2021/05/27 09:04:33;;;;;;;1.08;0.80;;;23.40;32.60;;;;;;5011974;28;20241;-48
2021/05/27 09:06:59;;;;;;;3.25;0.98;;;23.40;32.60;;;;;;5011658;28;20282;-50
2021/05/27 09:09:25;;;;;;;0.85;0.85;;;23.40;32.70;;;;;;5011443;28;20550;-43
2021/05/27 09:11:51;;;;;;;1.33;0.90;;;23.40;32.60;;;;;;5012758;28;20285;-42
2021/05/27 09:14:17;;;;;;;1.02;0.90;;;23.40;32.60;;;;;;5011189;28;20229;-45
2021/05/27 09:16:43;;;;;;;1.00;1.00;;;23.40;32.60;;;;;;5011740;28;20207;-49
2021/05/27 09:19:09;;;;;;;0.90;0.90;;;23.40;32.60;;;;;;5011523;28;20207;-46
2021/05/27 09:21:35;;;;;;;1.02;0.93;;;23.40;32.60;;;;;;5012033;28;20210;-46
2021/05/27 09:24:01;;;;;;;1.88;0.88;;;23.40;32.60;;;;;;5011182;28;20203;-44
2021/05/27 09:26:27;;;;;;;1.13;0.90;;;23.40;32.60;;;;;;5009428;28;20260;-43
2021/05/27 09:28:54;;;;;;;1.10;1.00;;;23.40;32.70;;;;;;5005314;28;20539;-44
2021/05/27 09:31:24;;;;;;;1.70;0.90;;;23.40;32.60;;;;;;5006112;28;20199;-43
2021/05/27 09:33:50;;;;;;;1.23;1.10;;;23.40;32.60;;;;;;5007468;28;20297;-43
2021/05/27 09:36:16;;;;;;;0.90;0.90;;;23.40;32.60;;;;;;5009543;28;20199;-41
2021/05/27 09:38:42;;;;;;;1.80;0.95;;;23.40;32.50;;;;;;5010782;28;20227;-41
2021/05/27 09:41:08;;;;;;;1.35;0.90;;;23.40;32.50;;;;;;5005309;28;20230;-41
2021/05/27 09:43:34;;;;;;;1.00;0.80;;;23.40;32.40;;;;;;5008937;28;20207;-48
2021/05/27 09:46:00;;;;;;;0.93;0.90;;;23.40;32.40;;;;;;5010589;28;20203;-45
2021/05/27 09:48:26;;;;;;;1.33;1.05;;;23.40;32.40;;;;;;5008881;28;20227;-40
2021/05/27 09:50:55;;;;;;;1.98;1.20;;;23.40;32.30;;;;;;5006455;28;20210;-42
2021/05/27 09:53:21;;;;;;;2.88;1.00;;;23.40;32.20;;;;;;5009903;28;20203;-41
2021/05/27 09:55:47;;;;;;;1.40;1.27;;;23.40;32.10;;;;;;5008748;28;20671;-43
2021/05/27 09:58:13;;;;;;;2.05;1.05;;;23.40;32.10;;;;;;5008904;28;20223;-40
2021/05/27 10:00:39;;;;;;;2.72;1.20;;;23.40;32.00;;;;;;5011173;28;20208;-45
2021/05/27 10:03:05;;;;;;;1.10;1.00;;;23.40;31.90;;;;;;5010160;28;20211;-42
2021/05/27 10:05:31;;;;;;;1.10;0.93;;;23.40;31.90;;;;;;5010737;28;20222;-44
2021/05/27 10:07:57;;;;;;;1.65;0.88;;;23.40;31.90;;;;;;5010492;28;20223;-41
2021/05/27 10:10:23;;;;;;;0.90;0.90;;;23.40;32.00;;;;;;5008466;28;20273;-45
2021/05/27 10:12:50;;;;;;;2.45;0.93;;;23.40;32.10;;;;;;5004693;28;20239;-48
2021/05/27 10:15:16;;;;;;;0.80;0.80;;;23.40;32.10;;;;;;5002362;28;20238;-42
2021/05/27 10:17:42;;;;;;;2.30;0.98;;;23.40;32.10;;;;;;5008843;28;20227;-49
2021/05/27 10:20:08;;;;;;;1.02;0.90;;;23.40;32.10;;;;;;5004720;28;20195;-42
2021/05/27 10:22:34;;;;;;;1.23;1.05;;;23.40;32.20;;;;;;5009504;28;20203;-41
2021/05/27 10:25:00;;;;;;;1.38;1.20;;;23.40;32.30;;;;;;5009275;28;20290;-45
2021/05/27 10:27:26;;;;;;;2.35;1.20;;;23.50;32.50;;;;;;5010125;28;20226;-44
2021/05/27 10:29:52;;;;;;;1.20;0.90;;;23.50;32.50;;;;;;5009189;28;20551;-42
2021/05/27 10:32:19;;;;;;;3.58;1.00;;;23.50;32.40;;;;;;5009954;28;20203;-41
2021/05/27 10:34:45;;;;;;;0.90;0.88;;;23.50;32.50;;;;;;5009113;28;20219;-41
2021/05/27 10:37:11;;;;;;;1.58;0.90;;;23.50;32.40;;;;;;5009277;28;20233;-40
2021/05/27 10:39:37;;;;;;;1.17;1.08;;;23.50;32.30;;;;;;5008565;28;20544;-41
2021/05/27 10:42:03;;;;;;;1.25;0.90;;;23.50;32.70;;;;;;5007718;28;20213;-42
2021/05/27 10:44:29;;;;;;;0.80;0.80;;;23.50;32.30;;;;;;4991211;28;20207;-41
2021/05/27 10:46:55;;;;;;;1.05;1.05;;;23.50;32.40;;;;;;5006383;28;20557;-46
2021/05/27 10:49:21;;;;;;;2.08;0.90;;;23.50;32.10;;;;;;5010113;28;20207;-41
2021/05/27 10:51:49;;;;;;;1.23;0.90;;;23.50;31.90;;;;;;5006263;28;20284;-41
2021/05/27 10:54:15;;;;;;;2.13;1.05;;;23.40;31.90;;;;;;5009241;28;20301;-44
2021/05/27 10:56:41;;;;;;;1.40;1.10;;;23.50;32.00;;;;;;5007696;28;20250;-42
2021/05/27 10:59:07;;;;;;;2.47;0.90;;;23.50;32.00;;;;;;5010224;28;20286;-44
2021/05/27 11:01:34;;;;;;;0.80;0.80;;;23.50;31.80;;;;;;4997791;28;20643;-46
2021/05/27 11:04:00;;;;;;;1.48;0.93;;;23.50;31.70;;;;;;4996449;28;20562;-42
2021/05/27 11:06:26;;;;;;;1.20;1.10;;;23.50;31.70;;;;;;5005635;28;20219;-43
2021/05/27 11:08:52;;;;;;;5.68;3.67;;;23.50;31.80;;;;;;4991669;28;20208;-44
2021/05/27 11:11:18;;;;;;;26.63;23.75;;;23.50;31.90;;;;;;5007892;28;20672;-45
2021/05/27 11:13:44;;;;;;;66.78;56.92;;;23.50;32.20;;;;;;5009480;28;20314;-41
2021/05/27 11:16:10;;;;;;;101.43;90.47;;;23.50;32.50;;;;;;5008274;28;20274;-47
2021/05/27 11:18:37;;;;;;;114.32;101.78;;;23.50;32.60;;;;;;5010243;28;20211;-43
2021/05/27 11:21:03;;;;;;;116.05;103.60;;;23.40;32.60;;;;;;5008892;28;20728;-48
2021/05/27 11:23:30;;;;;;;87.45;73.78;;;23.40;32.60;;;;;;5010907;28;20203;-43
2021/05/27 11:25:56;;;;;;;45.15;39.63;;;23.30;32.10;;;;;;5013972;28;20713;-47
2021/05/27 11:28:21;;;;;;;33.08;29.58;;;23.20;30.70;;;;;;5004394;28;20227;-43
2021/05/27 11:30:52;;;;;;;39.50;35.22;;;23.10;29.80;;;;;;5013484;28;20214;-45
2021/05/27 11:33:18;;;;;;;43.72;38.97;;;23.10;30.10;;;;;;5011700;28;20547;-50
2021/05/27 11:35:44;;;;;;;39.13;34.60;;;23.20;30.70;;;;;;5011717;28;20614;-42
2021/05/27 11:38:10;;;;;;;35.97;30.77;;;23.20;30.70;;;;;;5012009;28;20277;-55
2021/05/27 11:40:36;;;;;;;29.70;26.55;;;23.30;30.90;;;;;;5010359;28;20274;-42
2021/05/27 11:43:02;;;;;;;29.95;24.25;;;23.30;30.90;;;;;;5011841;28;20281;-45
2021/05/27 11:45:28;;;;;;;24.58;21.83;;;23.30;30.90;;;;;;5010079;28;20611;-49
2021/05/27 11:47:54;;;;;;;23.35;20.42;;;23.30;31.00;;;;;;5012410;28;20297;-43
2021/05/27 11:50:20;;;;;;;20.83;18.58;;;23.30;31.00;;;;;;5012292;28;20207;-50
2021/05/27 11:52:46;;;;;;;19.77;17.65;;;23.30;31.20;;;;;;5008077;28;20257;-43
2021/05/27 11:55:12;;;;;;;17.85;15.90;;;23.30;31.30;;;;;;5008292;28;20703;-45
2021/05/27 11:57:38;;;;;;;17.42;15.32;;;23.40;31.40;;;;;;5011606;28;20239;-41
2021/05/27 12:00:04;;;;;;;15.43;13.82;;;23.40;31.40;;;;;;5012285;28;20544;-45
2021/05/27 12:02:30;;;;;;;15.20;13.63;;;23.40;31.60;;;;;;5008863;28;20199;-42
2021/05/27 12:04:56;;;;;;;16.67;13.85;;;23.40;31.40;;;;;;5008618;28;20273;-43
2021/05/27 12:07:22;;;;;;;12.50;11.20;;;23.40;31.50;;;;;;5012080;28;20219;-43
2021/05/27 12:09:49;;;;;;;11.95;10.75;;;23.40;31.50;;;;;;5013049;28;20207;-45
2021/05/27 12:12:15;;;;;;;10.93;9.82;;;23.40;31.50;;;;;;5011272;28;20278;-52
2021/05/27 12:14:41;;;;;;;10.73;9.32;;;23.40;31.50;;;;;;5011202;28;20245;-42
2021/05/27 12:17:07;;;;;;;10.35;8.88;;;23.40;31.30;;;;;;5012764;28;20230;-41
2021/05/27 12:19:33;;;;;;;10.07;9.00;;;23.40;31.20;;;;;;5011894;28;20542;-41
2021/05/27 12:21:59;;;;;;;11.68;8.88;;;23.40;31.30;;;;;;5011781;28;20340;-42
2021/05/27 12:24:26;;;;;;;8.32;7.50;;;23.40;31.40;;;;;;5012055;28;20207;-49
2021/05/27 12:26:52;;;;;;;9.45;7.68;;;23.40;31.50;;;;;;5009588;28;20223;-44
2021/05/27 12:29:18;;;;;;;8.80;7.68;;;23.40;31.50;;;;;;5012083;28;20211;-41
2021/05/27 12:31:45;;;;;;;7.88;7.07;;;23.40;31.60;;;;;;5011871;28;20203;-42
2021/05/27 12:34:14;;;;;;;6.93;6.22;;;23.40;31.60;;;;;;5010513;28;20203;-43
2021/05/27 12:36:40;;;;;;;6.55;5.80;;;23.40;31.70;;;;;;5012190;28;20218;-44
2021/05/27 12:39:06;;;;;;;6.43;5.82;;;23.40;31.60;;;;;;5007728;28;20199;-49
2021/05/27 12:41:32;;;;;;;6.18;5.47;;;23.40;31.50;;;;;;5005257;28;20207;-44
2021/05/27 12:43:58;;;;;;;6.28;5.57;;;23.40;31.40;;;;;;5004863;28;20207;-45
2021/05/27 12:46:24;;;;;;;5.97;4.93;;;23.30;31.20;;;;;;5006533;28;20230;-43